createdAt,value
2022-10-17T00:02:16.271Z,14.37
2022-10-17T00:04:42.650Z,14.37
2022-10-17T00:07:11.318Z,14.34
2022-10-17T00:09:37.719Z,14.33
2022-10-17T00:12:04.441Z,14.31
2022-10-17T00:14:30.802Z,14.30
2022-10-17T00:16:57.145Z,14.29
2022-10-17T00:19:23.534Z,14.28
2022-10-17T00:21:50.161Z,14.27
2022-10-17T00:24:16.710Z,14.25
2022-10-17T00:26:43.065Z,14.24
2022-10-17T00:29:09.514Z,14.25
2022-10-17T00:31:35.982Z,14.25
2022-10-17T00:34:02.373Z,14.24
2022-10-17T00:36:29.505Z,14.25
2022-10-17T00:38:58.791Z,14.25
2022-10-17T00:41:29.177Z,14.26
2022-10-17T00:44:01.309Z,14.26
2022-10-17T00:46:33.575Z,14.27
2022-10-17T00:49:04.770Z,14.27
2022-10-17T00:51:38.069Z,14.27
2022-10-17T00:54:05.314Z,14.28
2022-10-17T00:56:32.609Z,14.28
2022-10-17T00:58:59.274Z,14.27
2022-10-17T01:01:26.050Z,14.29
2022-10-17T01:03:52.692Z,14.30
2022-10-17T01:06:19.072Z,14.30
2022-10-17T01:08:45.962Z,14.29
2022-10-17T01:11:42.250Z,14.30
2022-10-17T01:14:30.529Z,14.31
2022-10-17T01:17:13.612Z,14.33
2022-10-17T01:20:18.222Z,14.33
2022-10-17T01:22:51.162Z,14.33
2022-10-17T01:25:46.466Z,14.35
2022-10-17T01:28:19.736Z,14.35
2022-10-17T01:30:58.429Z,14.39
2022-10-17T01:33:37.733Z,14.40
2022-10-17T01:36:12.631Z,14.41
2022-10-17T01:39:06.575Z,14.42
2022-10-17T01:41:46.004Z,14.43
2022-10-17T01:44:23.013Z,14.41
2022-10-17T01:46:51.446Z,14.39
2022-10-17T01:49:24.630Z,14.40
2022-10-17T01:52:00.585Z,14.38
2022-10-17T01:54:38.261Z,14.40
2022-10-17T01:57:09.076Z,14.40
2022-10-17T01:59:44.166Z,14.40
2022-10-17T02:02:14.221Z,14.42
2022-10-17T02:04:41.821Z,14.41
2022-10-17T02:07:10.489Z,14.41
2022-10-17T02:09:37.474Z,14.41
2022-10-17T02:12:15.892Z,14.42
2022-10-17T02:14:54.608Z,14.43
2022-10-17T02:17:42.284Z,14.45
2022-10-17T02:20:25.768Z,14.47
2022-10-17T02:22:58.788Z,14.46
2022-10-17T02:25:37.742Z,14.47
2022-10-17T02:28:37.729Z,14.48
2022-10-17T02:31:15.237Z,14.48
2022-10-17T02:33:59.548Z,14.46
2022-10-17T02:36:31.010Z,14.48
2022-10-17T02:39:00.542Z,14.49
2022-10-17T02:43:58.803Z,14.51
2022-10-17T02:46:29.148Z,14.54
2022-10-17T02:49:02.702Z,14.54
2022-10-17T02:51:42.127Z,14.55
2022-10-17T02:54:28.081Z,14.56
2022-10-17T02:57:12.693Z,14.57
2022-10-17T02:59:41.735Z,14.60
2022-10-17T03:02:08.191Z,14.60
2022-10-17T03:04:34.704Z,14.63
2022-10-17T03:07:01.077Z,14.63
2022-10-17T03:09:27.706Z,14.65
2022-10-17T03:11:54.121Z,14.65
2022-10-17T03:14:20.673Z,14.68
2022-10-17T03:16:47.069Z,14.69
2022-10-17T03:19:15.429Z,14.70
2022-10-17T03:21:41.882Z,14.68
2022-10-17T03:24:08.530Z,14.70
2022-10-17T03:26:35.187Z,14.72
2022-10-17T03:29:02.321Z,14.72
2022-10-17T03:31:29.506Z,14.73
2022-10-17T03:33:56.748Z,14.74
2022-10-17T03:36:23.139Z,14.77
2022-10-17T03:38:53.802Z,14.80
2022-10-17T03:41:22.034Z,14.82
2022-10-17T03:43:48.513Z,14.85
2022-10-17T03:46:15.435Z,14.88
2022-10-17T03:48:43.861Z,14.93
2022-10-17T03:51:10.417Z,14.94
2022-10-17T03:53:42.833Z,14.95
2022-10-17T03:56:21.574Z,14.98
2022-10-17T03:59:04.012Z,15.03
2022-10-17T04:01:36.213Z,15.05
2022-10-17T04:04:02.690Z,15.06
2022-10-17T04:06:32.266Z,15.06
2022-10-17T04:08:59.849Z,15.06
2022-10-17T04:11:52.422Z,15.07
2022-10-17T04:14:20.520Z,15.09
2022-10-17T04:16:46.968Z,15.09
2022-10-17T04:19:17.806Z,15.15
2022-10-17T04:21:46.304Z,15.18
2022-10-17T04:24:14.240Z,15.16
2022-10-17T04:26:45.635Z,15.20
2022-10-17T04:29:13.440Z,15.23
2022-10-17T04:31:41.969Z,15.22
2022-10-17T04:34:37.448Z,15.17
2022-10-17T04:37:04.004Z,15.22
2022-10-17T04:39:30.854Z,15.24
2022-10-17T04:41:57.873Z,15.25
2022-10-17T04:44:24.419Z,15.23
2022-10-17T04:46:52.212Z,15.26
2022-10-17T04:49:19.430Z,15.29
2022-10-17T04:51:48.818Z,15.32
2022-10-17T04:54:24.023Z,15.35
2022-10-17T04:56:57.422Z,15.36
2022-10-17T04:59:23.945Z,15.33
2022-10-17T05:02:01.710Z,15.34
2022-10-17T05:04:29.897Z,15.36
2022-10-17T05:06:57.645Z,15.38
2022-10-17T05:09:29.990Z,15.39
2022-10-17T05:11:57.496Z,15.41
2022-10-17T05:14:24.889Z,15.43
2022-10-17T05:16:51.606Z,15.43
2022-10-17T05:19:18.480Z,15.42
2022-10-17T05:21:47.749Z,15.44
2022-10-17T05:24:14.853Z,15.45
2022-10-17T05:26:41.263Z,15.45
2022-10-17T05:29:08.844Z,15.43
2022-10-17T05:31:39.412Z,15.42
2022-10-17T05:34:09.129Z,15.45
2022-10-17T05:36:38.121Z,15.45
2022-10-17T05:39:05.502Z,15.45
2022-10-17T05:41:33.737Z,15.44
2022-10-17T05:44:03.131Z,15.44
2022-10-17T05:46:39.767Z,15.47
2022-10-17T05:49:14.866Z,15.45
2022-10-17T05:51:52.242Z,15.45
2022-10-17T05:54:18.760Z,15.47
2022-10-17T05:56:45.390Z,15.49
2022-10-17T05:59:12.048Z,15.50
2022-10-17T06:01:51.263Z,15.50
2022-10-17T06:04:17.765Z,15.49
2022-10-17T06:06:44.172Z,15.50
2022-10-17T06:09:10.564Z,15.50
2022-10-17T06:11:40.822Z,15.51
2022-10-17T06:14:08.520Z,15.51
2022-10-17T06:16:36.743Z,15.52
2022-10-17T06:19:03.209Z,15.50
2022-10-17T06:21:29.857Z,15.49
2022-10-17T06:24:04.643Z,15.49
2022-10-17T06:26:34.576Z,15.49
2022-10-17T06:29:01.132Z,15.49
2022-10-17T06:31:32.266Z,15.50
2022-10-17T06:33:58.648Z,15.51
2022-10-17T06:36:25.081Z,15.49
2022-10-17T06:38:51.442Z,15.49
2022-10-17T06:41:27.809Z,15.52
2022-10-17T06:43:54.599Z,15.53
2022-10-17T06:46:43.585Z,15.53
2022-10-17T06:49:10.603Z,15.56
2022-10-17T06:51:48.615Z,15.56
2022-10-17T06:54:18.321Z,15.54
2022-10-17T06:56:57.889Z,15.56
2022-10-17T06:59:27.184Z,15.56
2022-10-17T07:02:20.428Z,15.59
2022-10-17T07:04:47.677Z,15.58
2022-10-17T07:07:14.063Z,15.56
2022-10-17T07:09:40.555Z,15.57
2022-10-17T07:12:08.444Z,15.58
2022-10-17T07:14:35.713Z,15.57
2022-10-17T07:17:02.368Z,15.60
2022-10-17T07:19:31.340Z,15.62
2022-10-17T07:21:57.708Z,15.63
2022-10-17T07:24:25.064Z,15.66
2022-10-17T07:26:56.905Z,15.65
2022-10-17T07:29:23.305Z,15.63
2022-10-17T07:32:08.527Z,15.63
2022-10-17T07:34:35.665Z,15.63
2022-10-17T07:37:02.818Z,15.65
2022-10-17T07:39:29.408Z,15.63
2022-10-17T07:41:55.798Z,15.66
2022-10-17T07:44:23.668Z,15.67
2022-10-17T07:46:51.705Z,15.69
2022-10-17T07:49:18.633Z,15.66
2022-10-17T07:54:16.482Z,15.69
2022-10-17T07:56:42.906Z,15.71
2022-10-17T07:59:09.876Z,15.71
2022-10-17T08:01:37.105Z,15.70
2022-10-17T08:04:03.532Z,15.71
2022-10-17T08:06:29.910Z,15.70
2022-10-17T08:08:57.786Z,15.72
2022-10-17T08:11:25.285Z,15.70
2022-10-17T08:13:51.642Z,15.67
2022-10-17T08:16:18.041Z,15.68
2022-10-17T08:18:45.688Z,15.69
2022-10-17T08:21:13.353Z,15.73
2022-10-17T08:23:40.228Z,15.73
2022-10-17T08:26:10.330Z,15.73
2022-10-17T08:28:39.039Z,15.74
2022-10-17T08:31:07.616Z,15.75
2022-10-17T08:33:34.419Z,15.78
2022-10-17T08:36:02.106Z,15.79
2022-10-17T08:38:33.275Z,15.79
2022-10-17T08:41:05.209Z,15.80
2022-10-17T08:43:40.405Z,15.80
2022-10-17T08:46:09.304Z,15.82
2022-10-17T08:48:45.503Z,15.83
2022-10-17T08:51:18.003Z,15.85
2022-10-17T08:54:18.916Z,15.86
2022-10-17T08:56:49.695Z,15.87
2022-10-17T08:59:29.353Z,15.88
2022-10-17T09:02:40.731Z,15.89
2022-10-17T09:05:40.763Z,15.91
2022-10-17T09:08:25.597Z,15.93
2022-10-17T09:11:02.932Z,15.94
2022-10-17T09:13:56.014Z,15.95
2022-10-17T09:16:44.990Z,15.97
2022-10-17T09:19:28.402Z,15.99
2022-10-17T09:22:01.547Z,16.00
2022-10-17T09:24:42.221Z,16.00
2022-10-17T09:27:47.017Z,16.03
2022-10-17T09:30:46.452Z,16.04
2022-10-17T09:33:34.575Z,16.05
2022-10-17T09:36:05.647Z,16.07
2022-10-17T09:38:41.650Z,16.08
2022-10-17T09:44:29.045Z,16.12
2022-10-17T09:47:17.106Z,16.14
2022-10-17T09:49:46.407Z,16.15
2022-10-17T09:52:47.596Z,16.15
2022-10-17T09:55:30.735Z,16.18
2022-10-17T09:58:00.518Z,16.19
2022-10-17T10:00:29.996Z,16.19
2022-10-17T10:03:09.973Z,16.19
2022-10-17T10:05:36.749Z,16.19
2022-10-17T10:08:06.609Z,16.21
2022-10-17T10:10:33.554Z,16.21
2022-10-17T10:13:13.145Z,16.22
2022-10-17T10:15:50.644Z,16.24
2022-10-17T10:18:26.191Z,16.18
2022-10-17T10:21:19.680Z,16.21
2022-10-17T10:24:12.251Z,16.22
2022-10-17T10:26:40.016Z,16.20
2022-10-17T10:29:22.146Z,16.21
2022-10-17T10:31:49.534Z,16.20
2022-10-17T10:34:26.562Z,16.15
2022-10-17T10:37:04.643Z,16.14
2022-10-17T10:39:38.208Z,16.14
2022-10-17T10:42:17.095Z,16.14
2022-10-17T10:44:43.582Z,16.10
2022-10-17T10:47:26.097Z,16.10
2022-10-17T10:50:07.474Z,16.06
2022-10-17T10:52:43.525Z,15.96
2022-10-17T10:55:23.595Z,15.93
2022-10-17T10:57:54.929Z,15.93
2022-10-17T11:00:26.864Z,15.84
2022-10-17T11:03:03.952Z,15.69
2022-10-17T11:05:41.781Z,15.69
2022-10-17T11:08:28.522Z,15.71
2022-10-17T11:11:07.051Z,15.74
2022-10-17T11:13:40.749Z,15.74
2022-10-17T11:16:37.363Z,15.71
2022-10-17T11:19:24.838Z,15.71
2022-10-17T11:22:09.015Z,15.67
2022-10-17T11:25:24.787Z,15.63
2022-10-17T11:27:51.187Z,15.63
2022-10-17T11:30:17.771Z,15.62
2022-10-17T11:32:49.679Z,15.62
2022-10-17T11:35:30.056Z,15.62
2022-10-17T11:38:33.128Z,15.56
2022-10-17T11:41:00.159Z,15.54
2022-10-17T11:43:40.490Z,15.53
2022-10-17T11:46:25.286Z,15.55
2022-10-17T11:49:01.493Z,15.52
2022-10-17T11:54:26.590Z,15.58
2022-10-17T11:57:10.681Z,15.57
2022-10-17T11:59:54.532Z,15.55
2022-10-17T12:02:29.300Z,15.55
2022-10-17T12:05:22.181Z,15.52
2022-10-17T12:08:01.086Z,15.56
2022-10-17T12:10:45.355Z,15.56
2022-10-17T12:13:30.176Z,15.59
2022-10-17T12:15:58.390Z,15.61
2022-10-17T12:18:27.307Z,15.65
2022-10-17T12:21:00.942Z,15.72
2022-10-17T12:23:32.367Z,15.80
2022-10-17T12:26:04.907Z,15.87
2022-10-17T12:28:37.676Z,15.91
2022-10-17T12:31:12.958Z,15.94
2022-10-17T12:33:50.376Z,15.99
2022-10-17T12:36:16.943Z,16.04
2022-10-17T12:38:49.227Z,16.06
2022-10-17T12:41:37.685Z,16.12
2022-10-17T12:44:28.199Z,16.17
2022-10-17T12:47:09.342Z,16.19
2022-10-17T12:49:55.819Z,16.20
2022-10-17T12:52:32.109Z,16.26
2022-10-17T12:55:13.480Z,16.28
2022-10-17T12:57:56.699Z,16.24
2022-10-17T13:00:34.262Z,16.26
2022-10-17T13:03:11.539Z,16.26
2022-10-17T13:05:41.603Z,16.29
2022-10-17T13:08:16.854Z,16.28
2022-10-17T13:10:49.093Z,16.30
2022-10-17T13:13:37.376Z,16.35
2022-10-17T13:16:03.925Z,16.34
2022-10-17T13:18:30.741Z,16.36
2022-10-17T13:21:16.354Z,16.38
2022-10-17T13:23:42.829Z,16.40
2022-10-17T13:26:25.758Z,16.41
2022-10-17T13:29:12.801Z,16.36
2022-10-17T13:31:44.242Z,16.35
2022-10-17T13:34:20.623Z,16.37
2022-10-17T13:36:50.462Z,16.36
2022-10-17T13:39:32.561Z,16.36
2022-10-17T13:42:16.227Z,16.39
2022-10-17T13:44:43.499Z,16.41
2022-10-17T13:47:22.456Z,16.39
2022-10-17T13:49:52.912Z,16.38
2022-10-17T13:52:27.853Z,16.33
2022-10-17T13:55:05.651Z,16.33
2022-10-17T13:57:32.731Z,16.35
2022-10-17T14:00:02.606Z,16.37
2022-10-17T14:02:40.927Z,16.41
2022-10-17T14:05:19.033Z,16.46
2022-10-17T14:08:11.216Z,16.49
2022-10-17T14:10:40.090Z,16.48
2022-10-17T14:13:08.314Z,16.48
2022-10-17T14:15:36.439Z,16.51
2022-10-17T14:18:08.906Z,16.55
2022-10-17T14:23:50.548Z,16.59
2022-10-17T14:26:22.420Z,16.56
2022-10-17T14:29:04.394Z,16.58
2022-10-17T14:31:34.093Z,16.53
2022-10-17T14:34:02.658Z,16.56
2022-10-17T14:36:37.201Z,16.60
2022-10-17T14:39:08.552Z,16.59
2022-10-17T14:41:44.024Z,16.56
2022-10-17T14:44:27.275Z,16.53
2022-10-17T14:47:18.347Z,16.55
2022-10-17T14:50:04.177Z,16.51
2022-10-17T14:52:32.454Z,16.53
2022-10-17T14:55:11.911Z,16.57
2022-10-17T14:57:45.326Z,16.60
2022-10-17T15:00:20.528Z,16.62
2022-10-17T15:02:48.201Z,16.61
2022-10-17T15:05:15.724Z,16.62
2022-10-17T15:07:42.958Z,16.59
2022-10-17T15:10:34.702Z,16.55
2022-10-17T15:13:26.629Z,16.55
2022-10-17T15:15:51.719Z,16.53
2022-10-17T15:18:18.064Z,16.49
2022-10-17T15:20:44.422Z,16.51
2022-10-17T15:23:10.820Z,16.53
2022-10-17T15:25:38.285Z,16.56
2022-10-17T15:28:04.736Z,16.60
2022-10-17T15:30:35.888Z,16.61
2022-10-17T15:33:02.293Z,16.61
2022-10-17T15:35:29.077Z,16.60
2022-10-17T15:37:55.500Z,16.56
2022-10-17T15:40:29.110Z,16.58
2022-10-17T15:42:56.321Z,16.59
2022-10-17T15:45:23.727Z,16.60
2022-10-17T15:47:56.633Z,16.60
2022-10-17T15:50:23.210Z,16.62
2022-10-17T15:52:53.365Z,16.63
2022-10-17T15:55:19.947Z,16.62
2022-10-17T15:57:47.866Z,16.61
2022-10-17T16:00:23.804Z,16.59
2022-10-17T16:02:50.857Z,16.56
2022-10-17T16:05:25.995Z,16.55
2022-10-17T16:07:57.381Z,16.51
2022-10-17T16:10:25.878Z,16.51
2022-10-17T16:12:52.645Z,16.48
2022-10-17T16:15:25.018Z,16.49
2022-10-17T16:17:52.737Z,16.42
2022-10-17T16:20:20.111Z,16.37
2022-10-17T16:22:47.289Z,16.39
2022-10-17T16:25:25.573Z,16.39
2022-10-17T16:27:54.348Z,16.39
2022-10-17T16:32:55.138Z,16.41
2022-10-17T16:35:24.893Z,16.41
2022-10-17T16:37:51.378Z,16.39
2022-10-17T16:40:18.346Z,16.37
2022-10-17T16:42:44.919Z,16.34
2022-10-17T16:45:36.495Z,16.34
2022-10-17T16:48:05.936Z,16.30
2022-10-17T16:50:39.434Z,16.28
2022-10-17T16:53:08.557Z,16.29
2022-10-17T16:55:35.042Z,16.30
2022-10-17T16:58:01.540Z,16.30
2022-10-17T17:00:28.104Z,16.29
2022-10-17T17:02:56.814Z,16.27
2022-10-17T17:05:26.222Z,16.27
2022-10-17T17:07:52.625Z,16.28
2022-10-17T17:10:18.968Z,16.28
2022-10-17T17:12:45.326Z,16.27
2022-10-17T17:15:11.711Z,16.27
2022-10-17T17:17:49.648Z,16.28
2022-10-17T17:20:16.779Z,16.27
2022-10-17T17:22:43.165Z,16.24
2022-10-17T17:25:09.569Z,16.23
2022-10-17T17:27:35.935Z,16.24
2022-10-17T17:30:02.287Z,16.24
2022-10-17T17:32:28.640Z,16.20
2022-10-17T17:34:55.085Z,16.19
2022-10-17T17:37:21.456Z,16.18
2022-10-17T17:39:47.830Z,16.14
2022-10-17T17:42:14.177Z,16.12
2022-10-17T17:44:40.553Z,16.08
2022-10-17T17:47:07.019Z,16.05
2022-10-17T17:49:33.453Z,16.04
2022-10-17T17:51:59.972Z,16.05
2022-10-17T17:54:26.393Z,16.05
2022-10-17T17:56:52.892Z,16.05
2022-10-17T17:59:19.277Z,16.03
2022-10-17T18:01:45.755Z,16.00
2022-10-17T18:04:12.262Z,16.02
2022-10-17T18:06:39.315Z,15.93
2022-10-17T18:09:06.680Z,15.94
2022-10-17T18:11:33.468Z,15.97
2022-10-17T18:14:08.164Z,15.99
2022-10-17T18:16:36.639Z,16.01
2022-10-17T18:19:06.749Z,15.99
2022-10-17T18:21:33.914Z,15.98
2022-10-17T18:24:00.353Z,15.99
2022-10-17T18:26:27.205Z,15.98
2022-10-17T18:28:53.625Z,15.99
2022-10-17T18:31:25.030Z,15.99
2022-10-17T18:33:52.909Z,16.00
2022-10-17T18:36:20.234Z,15.98
2022-10-17T18:38:46.650Z,15.99
2022-10-17T18:41:16.273Z,15.98
2022-10-17T18:43:44.550Z,15.96
2022-10-17T18:46:16.107Z,15.99
2022-10-17T18:48:44.669Z,15.97
2022-10-17T18:51:12.403Z,15.96
2022-10-17T18:53:41.080Z,15.96
2022-10-17T18:56:07.868Z,15.93
2022-10-17T18:58:34.404Z,15.92
2022-10-17T19:01:05.650Z,15.94
2022-10-17T19:03:32.343Z,15.94
2022-10-17T19:06:08.797Z,15.94
2022-10-17T19:08:38.978Z,15.93
2022-10-17T19:11:11.111Z,15.91
2022-10-17T19:13:37.944Z,15.90
2022-10-17T19:16:06.716Z,15.83
2022-10-17T19:18:34.018Z,15.82
2022-10-17T19:21:05.684Z,15.81
2022-10-17T19:23:32.651Z,15.80
2022-10-17T19:26:11.726Z,15.80
2022-10-17T19:28:41.516Z,15.80
2022-10-17T19:31:08.689Z,15.80
2022-10-17T19:33:35.349Z,15.79
2022-10-17T19:36:05.557Z,15.74
2022-10-17T19:38:32.282Z,15.74
2022-10-17T19:43:26.582Z,15.76
2022-10-17T19:45:57.770Z,15.76
2022-10-17T19:48:24.846Z,15.73
2022-10-17T19:50:51.585Z,15.74
2022-10-17T19:53:18.011Z,15.73
2022-10-17T19:55:44.430Z,15.72
2022-10-17T19:58:10.859Z,15.72
2022-10-17T20:00:37.475Z,15.71
2022-10-17T20:03:04.198Z,15.72
2022-10-17T20:05:30.584Z,15.74
2022-10-17T20:07:56.954Z,15.74
2022-10-17T20:10:23.356Z,15.72
2022-10-17T20:12:49.721Z,15.72
2022-10-17T20:15:16.253Z,15.71
2022-10-17T20:17:42.595Z,15.69
2022-10-17T20:20:10.103Z,15.68
2022-10-17T20:22:36.459Z,15.68
2022-10-17T20:25:03.346Z,15.66
2022-10-17T20:27:29.925Z,15.68
2022-10-17T20:30:01.463Z,15.68
2022-10-17T20:32:29.586Z,15.68
2022-10-17T20:34:56.059Z,15.66
2022-10-17T20:37:22.618Z,15.66
2022-10-17T20:39:55.800Z,15.66
2022-10-17T20:42:31.490Z,15.64
2022-10-17T20:44:58.309Z,15.63
2022-10-17T20:47:43.461Z,15.64
2022-10-17T20:50:11.140Z,15.63
2022-10-17T20:52:37.511Z,15.64
2022-10-17T20:55:04.040Z,15.61
2022-10-17T20:57:30.647Z,15.62
2022-10-17T20:59:57.296Z,15.62
2022-10-17T21:02:23.721Z,15.61
2022-10-17T21:04:50.151Z,15.59
2022-10-17T21:07:16.531Z,15.57
2022-10-17T21:09:43.213Z,15.58
2022-10-17T21:12:09.582Z,15.56
2022-10-17T21:14:36.261Z,15.51
2022-10-17T21:17:05.289Z,15.50
2022-10-17T21:19:32.082Z,15.52
2022-10-17T21:21:58.429Z,15.51
2022-10-17T21:24:24.866Z,15.51
2022-10-17T21:26:55.509Z,15.50
2022-10-17T21:29:23.198Z,15.49
2022-10-17T21:31:49.863Z,15.48
2022-10-17T21:34:19.930Z,15.48
2022-10-17T21:36:47.291Z,15.46
2022-10-17T21:39:14.656Z,15.46
2022-10-17T21:41:41.744Z,15.46
2022-10-17T21:44:12.985Z,15.47
2022-10-17T21:46:39.381Z,15.45
2022-10-17T21:49:05.794Z,15.44
2022-10-17T21:51:32.173Z,15.42
2022-10-17T21:53:58.552Z,15.41
2022-10-17T21:56:30.626Z,15.38
2022-10-17T21:58:58.721Z,15.36
2022-10-17T22:01:28.806Z,15.35
2022-10-17T22:04:01.911Z,15.34
2022-10-17T22:06:39.848Z,15.34
2022-10-17T22:09:15.597Z,15.31
2022-10-17T22:11:46.955Z,15.31
2022-10-17T22:14:18.790Z,15.29
2022-10-17T22:16:46.817Z,15.28
2022-10-17T22:19:15.736Z,15.28
2022-10-17T22:21:42.179Z,15.29
2022-10-17T22:24:12.129Z,15.30
2022-10-17T22:26:39.686Z,15.29
2022-10-17T22:29:07.692Z,15.29
2022-10-17T22:31:34.902Z,15.28
2022-10-17T22:34:01.325Z,15.28
2022-10-17T22:36:27.725Z,15.26
2022-10-17T22:38:54.080Z,15.23
2022-10-17T22:41:20.481Z,15.23
2022-10-17T22:43:46.953Z,15.21
2022-10-17T22:46:16.091Z,15.22
2022-10-17T22:48:42.686Z,15.21
2022-10-17T22:51:09.293Z,15.20
2022-10-17T22:53:37.211Z,15.20
2022-10-17T22:56:06.385Z,15.17
2022-10-17T22:58:37.596Z,15.19
2022-10-17T23:01:08.286Z,15.18
2022-10-17T23:03:35.307Z,15.17
2022-10-17T23:06:02.381Z,15.15
2022-10-17T23:08:29.106Z,15.15
2022-10-17T23:10:58.241Z,15.13
2022-10-17T23:13:24.731Z,15.11
2022-10-17T23:15:53.140Z,15.10
2022-10-17T23:18:20.877Z,15.08
2022-10-17T23:20:47.481Z,15.06
2022-10-17T23:23:14.157Z,15.03
2022-10-17T23:25:40.797Z,15.00
2022-10-17T23:28:08.620Z,14.99
2022-10-17T23:30:36.174Z,14.97
2022-10-17T23:33:03.253Z,14.95
2022-10-17T23:35:29.734Z,14.92
2022-10-17T23:37:56.158Z,14.89
2022-10-17T23:40:22.502Z,14.87
2022-10-17T23:42:48.880Z,14.88
2022-10-17T23:45:15.241Z,14.86
2022-10-17T23:47:41.640Z,14.86
2022-10-17T23:50:08.267Z,14.82
2022-10-17T23:52:34.728Z,14.80
2022-10-17T23:55:01.098Z,14.81
2022-10-17T23:57:27.474Z,14.81
2022-10-17T23:59:53.874Z,14.79
